sensor_id;sensor_type;location;lat;lon;timestamp;temperature;humidity
10042;DHT22;5061;49.068;12.058;2023-05-27T00:00:18;14.60;93.20
10042;DHT22;5061;49.068;12.058;2023-05-27T00:03:39;14.60;87.50
10042;DHT22;5061;49.068;12.058;2023-05-27T00:07:00;14.60;87.70
10042;DHT22;5061;49.068;12.058;2023-05-27T00:10:20;14.50;88.20
10042;DHT22;5061;49.068;12.058;2023-05-27T00:13:42;14.40;88.90
10042;DHT22;5061;49.068;12.058;2023-05-27T00:17:03;14.40;93.80
10042;DHT22;5061;49.068;12.058;2023-05-27T00:20:23;14.30;86.40
10042;DHT22;5061;49.068;12.058;2023-05-27T00:23:46;14.30;85.90
10042;DHT22;5061;49.068;12.058;2023-05-27T00:27:07;14.20;88.20
10042;DHT22;5061;49.068;12.058;2023-05-27T00:30:28;14.20;88.30
10042;DHT22;5061;49.068;12.058;2023-05-27T00:33:49;14.10;90.00
10042;DHT22;5061;49.068;12.058;2023-05-27T00:37:09;14.10;89.60
10042;DHT22;5061;49.068;12.058;2023-05-27T00:40:30;14.10;91.30
10042;DHT22;5061;49.068;12.058;2023-05-27T00:43:51;14.00;91.40
10042;DHT22;5061;49.068;12.058;2023-05-27T00:47:12;14.00;95.80
10042;DHT22;5061;49.068;12.058;2023-05-27T00:50:33;13.90;99.60
10042;DHT22;5061;49.068;12.058;2023-05-27T00:53:53;13.90;98.10
10042;DHT22;5061;49.068;12.058;2023-05-27T00:57:15;13.80;91.70
10042;DHT22;5061;49.068;12.058;2023-05-27T01:00:35;13.70;98.00
10042;DHT22;5061;49.068;12.058;2023-05-27T01:03:59;13.70;98.60
10042;DHT22;5061;49.068;12.058;2023-05-27T01:11:07;13.60;90.30
10042;DHT22;5061;49.068;12.058;2023-05-27T01:14:31;13.60;87.60
10042;DHT22;5061;49.068;12.058;2023-05-27T01:17:55;13.60;91.30
10042;DHT22;5061;49.068;12.058;2023-05-27T01:21:16;13.50;90.00
10042;DHT22;5061;49.068;12.058;2023-05-27T01:24:38;13.50;89.20
10042;DHT22;5061;49.068;12.058;2023-05-27T01:27:58;13.50;90.60
10042;DHT22;5061;49.068;12.058;2023-05-27T01:31:22;13.50;91.50
10042;DHT22;5061;49.068;12.058;2023-05-27T01:38:32;13.40;91.10
10042;DHT22;5061;49.068;12.058;2023-05-27T01:41:54;13.40;90.90
10042;DHT22;5061;49.068;12.058;2023-05-27T01:45:15;13.40;90.20
10042;DHT22;5061;49.068;12.058;2023-05-27T01:48:36;13.30;90.40
10042;DHT22;5061;49.068;12.058;2023-05-27T01:51:56;13.30;91.50
10042;DHT22;5061;49.068;12.058;2023-05-27T01:55:17;13.30;90.80
10042;DHT22;5061;49.068;12.058;2023-05-27T01:58:38;13.30;91.30
10042;DHT22;5061;49.068;12.058;2023-05-27T02:01:59;13.20;99.60
10042;DHT22;5061;49.068;12.058;2023-05-27T02:05:19;13.20;90.60
10042;DHT22;5061;49.068;12.058;2023-05-27T02:08:40;13.20;90.00
10042;DHT22;5061;49.068;12.058;2023-05-27T02:12:00;13.20;89.00
10042;DHT22;5061;49.068;12.058;2023-05-27T02:15:21;13.10;89.80
10042;DHT22;5061;49.068;12.058;2023-05-27T02:18:43;13.10;89.80
10042;DHT22;5061;49.068;12.058;2023-05-27T02:22:04;13.10;90.20
10042;DHT22;5061;49.068;12.058;2023-05-27T02:25:25;13.00;90.00
10042;DHT22;5061;49.068;12.058;2023-05-27T02:28:46;13.00;89.80
10042;DHT22;5061;49.068;12.058;2023-05-27T02:32:06;13.00;90.70
10042;DHT22;5061;49.068;12.058;2023-05-27T02:35:27;13.00;92.50
10042;DHT22;5061;49.068;12.058;2023-05-27T02:38:48;13.00;90.80
10042;DHT22;5061;49.068;12.058;2023-05-27T02:42:08;12.90;91.50
10042;DHT22;5061;49.068;12.058;2023-05-27T02:45:29;12.90;91.20
10042;DHT22;5061;49.068;12.058;2023-05-27T02:48:50;12.90;90.90
10042;DHT22;5061;49.068;12.058;2023-05-27T02:52:10;12.90;90.90
10042;DHT22;5061;49.068;12.058;2023-05-27T02:55:31;12.80;90.90
10042;DHT22;5061;49.068;12.058;2023-05-27T02:58:52;12.90;91.20
10042;DHT22;5061;49.068;12.058;2023-05-27T03:02:13;12.80;91.20
10042;DHT22;5061;49.068;12.058;2023-05-27T03:05:36;12.80;91.50
10042;DHT22;5061;49.068;12.058;2023-05-27T03:08:57;12.80;92.20
10042;DHT22;5061;49.068;12.058;2023-05-27T03:12:17;12.80;90.90
10042;DHT22;5061;49.068;12.058;2023-05-27T03:15:38;12.80;91.40
10042;DHT22;5061;49.068;12.058;2023-05-27T03:18:59;12.80;91.20
10042;DHT22;5061;49.068;12.058;2023-05-27T03:22:19;12.70;90.80
10042;DHT22;5061;49.068;12.058;2023-05-27T03:25:40;12.80;91.20
10042;DHT22;5061;49.068;12.058;2023-05-27T03:29:01;12.80;91.50
10042;DHT22;5061;49.068;12.058;2023-05-27T03:32:21;12.70;91.00
10042;DHT22;5061;49.068;12.058;2023-05-27T03:35:42;12.70;90.80
10042;DHT22;5061;49.068;12.058;2023-05-27T03:39:03;12.70;91.10
10042;DHT22;5061;49.068;12.058;2023-05-27T03:42:24;12.60;91.10
10042;DHT22;5061;49.068;12.058;2023-05-27T03:45:45;12.60;90.90
10042;DHT22;5061;49.068;12.058;2023-05-27T03:49:05;12.70;91.20
10042;DHT22;5061;49.068;12.058;2023-05-27T03:52:26;12.60;91.40
10042;DHT22;5061;49.068;12.058;2023-05-27T03:55:47;12.60;90.80
10042;DHT22;5061;49.068;12.058;2023-05-27T03:59:07;12.60;91.60
10042;DHT22;5061;49.068;12.058;2023-05-27T04:02:28;12.60;91.00
10042;DHT22;5061;49.068;12.058;2023-05-27T04:05:48;12.60;91.10
10042;DHT22;5061;49.068;12.058;2023-05-27T04:09:09;12.60;90.50
10042;DHT22;5061;49.068;12.058;2023-05-27T04:12:29;12.60;90.60
10042;DHT22;5061;49.068;12.058;2023-05-27T04:15:50;12.60;90.80
10042;DHT22;5061;49.068;12.058;2023-05-27T04:19:11;12.60;91.00
10042;DHT22;5061;49.068;12.058;2023-05-27T04:22:32;12.60;90.70
10042;DHT22;5061;49.068;12.058;2023-05-27T04:25:52;12.60;90.60
10042;DHT22;5061;49.068;12.058;2023-05-27T04:29:13;12.60;91.30
10042;DHT22;5061;49.068;12.058;2023-05-27T04:32:36;12.70;91.80
10042;DHT22;5061;49.068;12.058;2023-05-27T04:35:58;12.70;92.20
10042;DHT22;5061;49.068;12.058;2023-05-27T04:39:18;12.70;91.80
10042;DHT22;5061;49.068;12.058;2023-05-27T04:42:39;12.80;92.70
10042;DHT22;5061;49.068;12.058;2023-05-27T04:45:59;12.80;92.20
10042;DHT22;5061;49.068;12.058;2023-05-27T04:49:21;12.80;91.90
10042;DHT22;5061;49.068;12.058;2023-05-27T04:52:42;12.80;92.70
10042;DHT22;5061;49.068;12.058;2023-05-27T04:56:03;12.80;93.60
10042;DHT22;5061;49.068;12.058;2023-05-27T04:59:24;12.90;92.40
10042;DHT22;5061;49.068;12.058;2023-05-27T05:02:50;12.90;92.40
10042;DHT22;5061;49.068;12.058;2023-05-27T05:06:21;12.90;92.10
10042;DHT22;5061;49.068;12.058;2023-05-27T05:09:42;13.00;93.40
10042;DHT22;5061;49.068;12.058;2023-05-27T05:13:03;13.00;93.50
10042;DHT22;5061;49.068;12.058;2023-05-27T05:16:23;13.00;93.40
10042;DHT22;5061;49.068;12.058;2023-05-27T05:19:44;13.10;92.70
10042;DHT22;5061;49.068;12.058;2023-05-27T05:23:07;13.10;93.30
10042;DHT22;5061;49.068;12.058;2023-05-27T05:26:28;13.10;93.80
10042;DHT22;5061;49.068;12.058;2023-05-27T05:29:49;13.10;92.70
10042;DHT22;5061;49.068;12.058;2023-05-27T05:33:09;13.20;93.60
10042;DHT22;5061;49.068;12.058;2023-05-27T05:36:30;13.20;93.10
10042;DHT22;5061;49.068;12.058;2023-05-27T05:39:50;13.20;93.00
10042;DHT22;5061;49.068;12.058;2023-05-27T05:43:11;13.30;93.40
10042;DHT22;5061;49.068;12.058;2023-05-27T05:46:32;13.30;93.50
10042;DHT22;5061;49.068;12.058;2023-05-27T05:49:52;13.40;93.60
10042;DHT22;5061;49.068;12.058;2023-05-27T05:53:13;13.50;93.80
10042;DHT22;5061;49.068;12.058;2023-05-27T05:56:34;13.60;93.50
10042;DHT22;5061;49.068;12.058;2023-05-27T05:59:54;13.80;93.80
10042;DHT22;5061;49.068;12.058;2023-05-27T06:03:15;13.90;93.60
10042;DHT22;5061;49.068;12.058;2023-05-27T06:06:35;14.10;93.60
10042;DHT22;5061;49.068;12.058;2023-05-27T06:09:56;14.20;93.60
10042;DHT22;5061;49.068;12.058;2023-05-27T06:13:17;14.20;93.10
10042;DHT22;5061;49.068;12.058;2023-05-27T06:16:37;14.30;93.10
10042;DHT22;5061;49.068;12.058;2023-05-27T06:20:00;14.30;92.90
10042;DHT22;5061;49.068;12.058;2023-05-27T06:23:20;14.40;93.00
10042;DHT22;5061;49.068;12.058;2023-05-27T06:26:41;14.40;92.90
10042;DHT22;5061;49.068;12.058;2023-05-27T06:30:01;14.40;93.00
10042;DHT22;5061;49.068;12.058;2023-05-27T06:33:22;14.50;93.00
10042;DHT22;5061;49.068;12.058;2023-05-27T06:36:42;14.50;93.60
10042;DHT22;5061;49.068;12.058;2023-05-27T06:40:03;14.60;94.00
10042;DHT22;5061;49.068;12.058;2023-05-27T06:43:24;14.60;94.10
10042;DHT22;5061;49.068;12.058;2023-05-27T06:46:45;14.60;93.60
10042;DHT22;5061;49.068;12.058;2023-05-27T06:50:06;14.60;93.30
10042;DHT22;5061;49.068;12.058;2023-05-27T06:53:26;14.60;93.30
10042;DHT22;5061;49.068;12.058;2023-05-27T06:56:47;14.60;99.20
10042;DHT22;5061;49.068;12.058;2023-05-27T07:00:08;14.60;93.10
10042;DHT22;5061;49.068;12.058;2023-05-27T07:03:29;14.60;93.90
10042;DHT22;5061;49.068;12.058;2023-05-27T07:06:49;14.70;93.20
10042;DHT22;5061;49.068;12.058;2023-05-27T07:10:10;14.70;93.10
10042;DHT22;5061;49.068;12.058;2023-05-27T07:13:30;14.80;93.60
10042;DHT22;5061;49.068;12.058;2023-05-27T07:16:51;14.80;93.70
10042;DHT22;5061;49.068;12.058;2023-05-27T07:20:12;14.80;93.90
10042;DHT22;5061;49.068;12.058;2023-05-27T07:23:33;14.90;93.20
10042;DHT22;5061;49.068;12.058;2023-05-27T07:26:53;14.90;93.50
10042;DHT22;5061;49.068;12.058;2023-05-27T07:30:14;15.00;94.20
10042;DHT22;5061;49.068;12.058;2023-05-27T07:33:35;15.00;94.70
10042;DHT22;5061;49.068;12.058;2023-05-27T07:36:56;15.10;98.40
10042;DHT22;5061;49.068;12.058;2023-05-27T07:40:16;15.10;94.90
10042;DHT22;5061;49.068;12.058;2023-05-27T07:43:37;15.20;94.50
10042;DHT22;5061;49.068;12.058;2023-05-27T07:46:57;15.20;94.00
10042;DHT22;5061;49.068;12.058;2023-05-27T07:50:18;15.30;94.70
10042;DHT22;5061;49.068;12.058;2023-05-27T07:53:39;15.40;94.00
10042;DHT22;5061;49.068;12.058;2023-05-27T07:56:59;15.40;97.70
10042;DHT22;5061;49.068;12.058;2023-05-27T08:00:21;15.50;94.20
10042;DHT22;5061;49.068;12.058;2023-05-27T08:03:42;15.60;94.30
10042;DHT22;5061;49.068;12.058;2023-05-27T08:07:02;15.70;94.50
10042;DHT22;5061;49.068;12.058;2023-05-27T08:10:23;15.80;95.00
10042;DHT22;5061;49.068;12.058;2023-05-27T08:13:44;15.90;94.30
10042;DHT22;5061;49.068;12.058;2023-05-27T08:17:05;16.10;94.80
10042;DHT22;5061;49.068;12.058;2023-05-27T08:20:26;16.20;94.90
10042;DHT22;5061;49.068;12.058;2023-05-27T08:23:46;16.30;94.70
10042;DHT22;5061;49.068;12.058;2023-05-27T08:27:14;16.40;95.20
10042;DHT22;5061;49.068;12.058;2023-05-27T08:30:39;16.60;95.70
10042;DHT22;5061;49.068;12.058;2023-05-27T08:34:00;16.70;95.30
10042;DHT22;5061;49.068;12.058;2023-05-27T08:37:21;16.80;95.30
10042;DHT22;5061;49.068;12.058;2023-05-27T08:40:47;17.00;95.50
10042;DHT22;5061;49.068;12.058;2023-05-27T08:44:08;17.20;95.40
10042;DHT22;5061;49.068;12.058;2023-05-27T08:47:29;17.40;95.70
10042;DHT22;5061;49.068;12.058;2023-05-27T08:50:51;17.50;95.80
10042;DHT22;5061;49.068;12.058;2023-05-27T08:54:12;17.70;96.10
10042;DHT22;5061;49.068;12.058;2023-05-27T08:57:33;17.90;96.20
10042;DHT22;5061;49.068;12.058;2023-05-27T09:00:56;18.00;95.60
10042;DHT22;5061;49.068;12.058;2023-05-27T09:04:17;18.20;95.90
10042;DHT22;5061;49.068;12.058;2023-05-27T09:07:38;18.30;96.10
10042;DHT22;5061;49.068;12.058;2023-05-27T09:11:01;18.40;95.20
10042;DHT22;5061;49.068;12.058;2023-05-27T09:14:22;18.60;95.30
10042;DHT22;5061;49.068;12.058;2023-05-27T09:17:44;18.70;96.20
10042;DHT22;5061;49.068;12.058;2023-05-27T09:21:05;19.00;95.70
10042;DHT22;5061;49.068;12.058;2023-05-27T09:24:26;19.10;95.30
10042;DHT22;5061;49.068;12.058;2023-05-27T09:27:47;19.30;95.30
10042;DHT22;5061;49.068;12.058;2023-05-27T09:31:09;19.40;95.60
10042;DHT22;5061;49.068;12.058;2023-05-27T09:34:30;19.50;96.20
10042;DHT22;5061;49.068;12.058;2023-05-27T09:37:51;19.60;95.30
10042;DHT22;5061;49.068;12.058;2023-05-27T09:41:12;19.80;95.20
10042;DHT22;5061;49.068;12.058;2023-05-27T09:44:36;19.90;95.20
10042;DHT22;5061;49.068;12.058;2023-05-27T09:48:03;20.10;95.80
10042;DHT22;5061;49.068;12.058;2023-05-27T09:51:29;20.20;95.70
10042;DHT22;5061;49.068;12.058;2023-05-27T09:54:51;20.30;95.60
10042;DHT22;5061;49.068;12.058;2023-05-27T09:58:13;20.40;94.60
10042;DHT22;5061;49.068;12.058;2023-05-27T10:01:38;20.50;94.50
10042;DHT22;5061;49.068;12.058;2023-05-27T10:05:03;20.60;94.20
10042;DHT22;5061;49.068;12.058;2023-05-27T10:08:28;20.70;94.00
10042;DHT22;5061;49.068;12.058;2023-05-27T10:11:49;20.90;95.00
10042;DHT22;5061;49.068;12.058;2023-05-27T10:15:24;21.00;94.30
10042;DHT22;5061;49.068;12.058;2023-05-27T10:18:45;21.10;94.50
10042;DHT22;5061;49.068;12.058;2023-05-27T10:22:12;21.20;94.30
10042;DHT22;5061;49.068;12.058;2023-05-27T10:25:37;21.30;94.50
10042;DHT22;5061;49.068;12.058;2023-05-27T10:29:08;21.50;98.50
10042;DHT22;5061;49.068;12.058;2023-05-27T10:32:29;21.60;94.80
10042;DHT22;5061;49.068;12.058;2023-05-27T10:35:51;21.70;96.10
10042;DHT22;5061;49.068;12.058;2023-05-27T10:39:17;21.80;94.70
10042;DHT22;5061;49.068;12.058;2023-05-27T10:42:41;21.90;95.70
10042;DHT22;5061;49.068;12.058;2023-05-27T10:46:09;22.00;95.70
10042;DHT22;5061;49.068;12.058;2023-05-27T10:49:35;22.00;97.50
10042;DHT22;5061;49.068;12.058;2023-05-27T10:52:56;22.10;94.00
10042;DHT22;5061;49.068;12.058;2023-05-27T10:56:18;22.20;95.10
10042;DHT22;5061;49.068;12.058;2023-05-27T10:59:53;22.30;94.10
10042;DHT22;5061;49.068;12.058;2023-05-27T11:03:25;22.40;93.80
10042;DHT22;5061;49.068;12.058;2023-05-27T11:10:19;22.50;93.40
10042;DHT22;5061;49.068;12.058;2023-05-27T11:13:45;22.60;94.10
10042;DHT22;5061;49.068;12.058;2023-05-27T11:17:10;22.70;93.00
10042;DHT22;5061;49.068;12.058;2023-05-27T11:20:36;22.80;92.00
10042;DHT22;5061;49.068;12.058;2023-05-27T11:23:57;22.90;92.40
10042;DHT22;5061;49.068;12.058;2023-05-27T11:27:18;23.10;93.40
10042;DHT22;5061;49.068;12.058;2023-05-27T11:30:39;23.20;91.30
10042;DHT22;5061;49.068;12.058;2023-05-27T11:34:00;23.40;91.80
10042;DHT22;5061;49.068;12.058;2023-05-27T11:37:21;23.40;91.70
10042;DHT22;5061;49.068;12.058;2023-05-27T11:40:42;23.60;91.80
10042;DHT22;5061;49.068;12.058;2023-05-27T11:44:06;23.70;90.60
10042;DHT22;5061;49.068;12.058;2023-05-27T11:47:27;23.70;90.30
10042;DHT22;5061;49.068;12.058;2023-05-27T11:50:49;23.80;90.50
10042;DHT22;5061;49.068;12.058;2023-05-27T11:57:44;23.80;89.40
10042;DHT22;5061;49.068;12.058;2023-05-27T12:01:05;23.80;87.00
10042;DHT22;5061;49.068;12.058;2023-05-27T12:04:27;23.80;91.30
10042;DHT22;5061;49.068;12.058;2023-05-27T12:07:48;23.80;83.40
10042;DHT22;5061;49.068;12.058;2023-05-27T12:11:09;23.90;87.10
10042;DHT22;5061;49.068;12.058;2023-05-27T12:14:30;23.90;84.10
10042;DHT22;5061;49.068;12.058;2023-05-27T12:17:51;24.00;82.70
10042;DHT22;5061;49.068;12.058;2023-05-27T12:21:12;24.10;84.50
10042;DHT22;5061;49.068;12.058;2023-05-27T12:24:33;24.20;82.90
10042;DHT22;5061;49.068;12.058;2023-05-27T12:27:54;24.30;84.20
10042;DHT22;5061;49.068;12.058;2023-05-27T12:31:15;24.40;84.00
10042;DHT22;5061;49.068;12.058;2023-05-27T12:34:36;24.50;82.20
10042;DHT22;5061;49.068;12.058;2023-05-27T12:37:58;24.60;80.70
10042;DHT22;5061;49.068;12.058;2023-05-27T12:41:19;24.60;81.70
10042;DHT22;5061;49.068;12.058;2023-05-27T12:44:41;24.80;81.10
10042;DHT22;5061;49.068;12.058;2023-05-27T12:48:02;24.90;87.10
10042;DHT22;5061;49.068;12.058;2023-05-27T12:51:24;25.00;86.10
10042;DHT22;5061;49.068;12.058;2023-05-27T12:54:45;25.20;85.60
10042;DHT22;5061;49.068;12.058;2023-05-27T12:58:07;25.30;86.40
10042;DHT22;5061;49.068;12.058;2023-05-27T13:01:28;25.50;85.30
10042;DHT22;5061;49.068;12.058;2023-05-27T13:04:50;25.60;88.40
10042;DHT22;5061;49.068;12.058;2023-05-27T13:08:13;25.70;86.20
10042;DHT22;5061;49.068;12.058;2023-05-27T13:11:34;25.80;87.30
10042;DHT22;5061;49.068;12.058;2023-05-27T13:15:00;25.90;91.00
10042;DHT22;5061;49.068;12.058;2023-05-27T13:18:24;26.00;92.70
10042;DHT22;5061;49.068;12.058;2023-05-27T13:21:45;26.00;89.10
10042;DHT22;5061;49.068;12.058;2023-05-27T13:25:06;26.10;89.40
10042;DHT22;5061;49.068;12.058;2023-05-27T13:28:27;26.30;90.10
10042;DHT22;5061;49.068;12.058;2023-05-27T13:31:51;26.30;94.50
10042;DHT22;5061;49.068;12.058;2023-05-27T13:35:15;26.40;89.90
10042;DHT22;5061;49.068;12.058;2023-05-27T13:38:35;26.40;85.10
10042;DHT22;5061;49.068;12.058;2023-05-27T13:41:57;26.50;90.90
10042;DHT22;5061;49.068;12.058;2023-05-27T13:45:19;26.50;85.70
10042;DHT22;5061;49.068;12.058;2023-05-27T13:48:40;26.50;85.40
10042;DHT22;5061;49.068;12.058;2023-05-27T13:52:00;26.60;84.80
10042;DHT22;5061;49.068;12.058;2023-05-27T13:55:22;26.70;86.70
10042;DHT22;5061;49.068;12.058;2023-05-27T13:58:42;26.80;83.50
10042;DHT22;5061;49.068;12.058;2023-05-27T14:02:03;26.90;84.00
10042;DHT22;5061;49.068;12.058;2023-05-27T14:05:26;27.00;85.80
10042;DHT22;5061;49.068;12.058;2023-05-27T14:08:49;27.00;92.40
10042;DHT22;5061;49.068;12.058;2023-05-27T14:12:10;27.00;82.90
10042;DHT22;5061;49.068;12.058;2023-05-27T14:15:31;27.00;99.90
10042;DHT22;5061;49.068;12.058;2023-05-27T14:18:52;27.00;84.40
10042;DHT22;5061;49.068;12.058;2023-05-27T14:22:12;27.00;99.90
10042;DHT22;5061;49.068;12.058;2023-05-27T14:25:33;27.00;99.90
10042;DHT22;5061;49.068;12.058;2023-05-27T14:28:55;27.00;86.00
10042;DHT22;5061;49.068;12.058;2023-05-27T14:32:16;27.10;96.10
10042;DHT22;5061;49.068;12.058;2023-05-27T14:35:40;27.00;84.80
10042;DHT22;5061;49.068;12.058;2023-05-27T14:39:01;27.20;85.80
10042;DHT22;5061;49.068;12.058;2023-05-27T14:42:26;27.20;84.50
10042;DHT22;5061;49.068;12.058;2023-05-27T14:45:47;27.10;83.90
10042;DHT22;5061;49.068;12.058;2023-05-27T14:49:10;27.10;83.30
10042;DHT22;5061;49.068;12.058;2023-05-27T14:52:35;27.10;85.10
10042;DHT22;5061;49.068;12.058;2023-05-27T14:55:56;27.00;84.50
10042;DHT22;5061;49.068;12.058;2023-05-27T14:59:19;27.00;82.00
10042;DHT22;5061;49.068;12.058;2023-05-27T15:02:42;26.90;85.70
10042;DHT22;5061;49.068;12.058;2023-05-27T15:06:03;26.80;81.90
10042;DHT22;5061;49.068;12.058;2023-05-27T15:09:24;26.70;84.20
10042;DHT22;5061;49.068;12.058;2023-05-27T15:12:49;26.70;83.40
10042;DHT22;5061;49.068;12.058;2023-05-27T15:16:10;26.60;86.40
10042;DHT22;5061;49.068;12.058;2023-05-27T15:19:31;26.50;80.30
10042;DHT22;5061;49.068;12.058;2023-05-27T15:22:52;26.40;81.70
10042;DHT22;5061;49.068;12.058;2023-05-27T15:26:13;26.40;84.30
10042;DHT22;5061;49.068;12.058;2023-05-27T15:29:33;26.30;81.30
10042;DHT22;5061;49.068;12.058;2023-05-27T15:33:00;26.30;81.70
10042;DHT22;5061;49.068;12.058;2023-05-27T15:36:22;26.30;80.50
10042;DHT22;5061;49.068;12.058;2023-05-27T15:39:43;26.10;82.60
10042;DHT22;5061;49.068;12.058;2023-05-27T15:43:13;25.90;82.20
10042;DHT22;5061;49.068;12.058;2023-05-27T15:46:35;25.90;80.20
10042;DHT22;5061;49.068;12.058;2023-05-27T15:49:56;25.80;81.60
10042;DHT22;5061;49.068;12.058;2023-05-27T15:53:17;25.70;77.60
10042;DHT22;5061;49.068;12.058;2023-05-27T15:56:41;25.80;79.10
10042;DHT22;5061;49.068;12.058;2023-05-27T16:00:05;25.70;80.50
10042;DHT22;5061;49.068;12.058;2023-05-27T16:03:29;25.80;77.70
10042;DHT22;5061;49.068;12.058;2023-05-27T16:06:50;25.80;75.60
10042;DHT22;5061;49.068;12.058;2023-05-27T16:10:11;25.80;77.20
10042;DHT22;5061;49.068;12.058;2023-05-27T16:13:32;25.80;76.90
10042;DHT22;5061;49.068;12.058;2023-05-27T16:16:58;25.70;89.40
10042;DHT22;5061;49.068;12.058;2023-05-27T16:20:18;25.70;76.80
10042;DHT22;5061;49.068;12.058;2023-05-27T16:23:40;25.60;82.60
10042;DHT22;5061;49.068;12.058;2023-05-27T16:27:01;25.50;77.30
10042;DHT22;5061;49.068;12.058;2023-05-27T16:30:22;25.40;77.80
10042;DHT22;5061;49.068;12.058;2023-05-27T16:33:43;25.20;77.40
10042;DHT22;5061;49.068;12.058;2023-05-27T16:37:04;25.00;78.50
10042;DHT22;5061;49.068;12.058;2023-05-27T16:40:25;24.90;76.70
10042;DHT22;5061;49.068;12.058;2023-05-27T16:43:49;24.80;75.50
10042;DHT22;5061;49.068;12.058;2023-05-27T16:47:10;24.60;75.30
10042;DHT22;5061;49.068;12.058;2023-05-27T16:50:32;24.40;75.40
10042;DHT22;5061;49.068;12.058;2023-05-27T16:53:52;24.20;76.30
10042;DHT22;5061;49.068;12.058;2023-05-27T16:57:13;24.10;82.80
10042;DHT22;5061;49.068;12.058;2023-05-27T17:00:43;23.90;75.00
10042;DHT22;5061;49.068;12.058;2023-05-27T17:04:04;23.80;75.70
10042;DHT22;5061;49.068;12.058;2023-05-27T17:07:25;23.60;83.40
10042;DHT22;5061;49.068;12.058;2023-05-27T17:10:46;23.50;85.40
10042;DHT22;5061;49.068;12.058;2023-05-27T17:14:09;23.40;75.40
10042;DHT22;5061;49.068;12.058;2023-05-27T17:17:30;23.20;75.00
10042;DHT22;5061;49.068;12.058;2023-05-27T17:20:51;23.10;73.70
10042;DHT22;5061;49.068;12.058;2023-05-27T17:24:11;23.00;82.80
10042;DHT22;5061;49.068;12.058;2023-05-27T17:27:32;22.90;73.20
10042;DHT22;5061;49.068;12.058;2023-05-27T17:30:53;22.80;72.50
10042;DHT22;5061;49.068;12.058;2023-05-27T17:34:14;22.60;72.40
10042;DHT22;5061;49.068;12.058;2023-05-27T17:37:35;22.50;72.90
10042;DHT22;5061;49.068;12.058;2023-05-27T17:40:55;22.40;74.70
10042;DHT22;5061;49.068;12.058;2023-05-27T17:44:16;22.30;74.50
10042;DHT22;5061;49.068;12.058;2023-05-27T17:47:37;22.10;70.70
10042;DHT22;5061;49.068;12.058;2023-05-27T17:50:57;22.00;72.00
10042;DHT22;5061;49.068;12.058;2023-05-27T17:54:18;21.80;74.00
10042;DHT22;5061;49.068;12.058;2023-05-27T17:57:38;21.70;71.90
10042;DHT22;5061;49.068;12.058;2023-05-27T18:01:00;21.60;71.40
10042;DHT22;5061;49.068;12.058;2023-05-27T18:04:23;21.50;72.70
10042;DHT22;5061;49.068;12.058;2023-05-27T18:07:46;21.40;71.70
10042;DHT22;5061;49.068;12.058;2023-05-27T18:11:07;21.20;71.10
10042;DHT22;5061;49.068;12.058;2023-05-27T18:14:27;21.10;72.10
10042;DHT22;5061;49.068;12.058;2023-05-27T18:17:49;21.00;71.70
10042;DHT22;5061;49.068;12.058;2023-05-27T18:21:10;20.80;71.00
10042;DHT22;5061;49.068;12.058;2023-05-27T18:24:31;20.70;73.70
10042;DHT22;5061;49.068;12.058;2023-05-27T18:27:51;20.60;77.90
10042;DHT22;5061;49.068;12.058;2023-05-27T18:31:12;20.50;71.70
10042;DHT22;5061;49.068;12.058;2023-05-27T18:34:33;20.40;71.50
10042;DHT22;5061;49.068;12.058;2023-05-27T18:37:53;20.30;69.50
10042;DHT22;5061;49.068;12.058;2023-05-27T18:41:15;20.10;69.90
10042;DHT22;5061;49.068;12.058;2023-05-27T18:44:35;20.10;71.50
10042;DHT22;5061;49.068;12.058;2023-05-27T18:47:56;19.90;91.50
10042;DHT22;5061;49.068;12.058;2023-05-27T18:51:16;19.80;77.20
10042;DHT22;5061;49.068;12.058;2023-05-27T18:54:39;19.70;69.40
10042;DHT22;5061;49.068;12.058;2023-05-27T18:58:00;19.60;76.60
10042;DHT22;5061;49.068;12.058;2023-05-27T19:01:21;19.50;87.50
10042;DHT22;5061;49.068;12.058;2023-05-27T19:04:42;19.40;68.20
10042;DHT22;5061;49.068;12.058;2023-05-27T19:08:04;19.30;92.50
10042;DHT22;5061;49.068;12.058;2023-05-27T19:11:26;19.20;70.10
10042;DHT22;5061;49.068;12.058;2023-05-27T19:14:47;19.10;69.50
10042;DHT22;5061;49.068;12.058;2023-05-27T19:18:08;19.10;70.40
10042;DHT22;5061;49.068;12.058;2023-05-27T19:21:28;19.00;69.70
10042;DHT22;5061;49.068;12.058;2023-05-27T19:24:49;18.90;70.60
10042;DHT22;5061;49.068;12.058;2023-05-27T19:28:09;18.80;71.40
10042;DHT22;5061;49.068;12.058;2023-05-27T19:31:30;18.70;72.20
10042;DHT22;5061;49.068;12.058;2023-05-27T19:34:50;18.60;70.90
10042;DHT22;5061;49.068;12.058;2023-05-27T19:38:11;18.50;71.90
10042;DHT22;5061;49.068;12.058;2023-05-27T19:41:32;18.40;71.10
10042;DHT22;5061;49.068;12.058;2023-05-27T19:44:52;18.40;69.40
10042;DHT22;5061;49.068;12.058;2023-05-27T19:48:13;18.20;69.80
10042;DHT22;5061;49.068;12.058;2023-05-27T19:51:34;18.20;69.40
10042;DHT22;5061;49.068;12.058;2023-05-27T19:54:54;18.10;70.60
10042;DHT22;5061;49.068;12.058;2023-05-27T19:58:15;18.00;71.30
10042;DHT22;5061;49.068;12.058;2023-05-27T20:01:36;18.00;71.20
10042;DHT22;5061;49.068;12.058;2023-05-27T20:04:56;17.90;71.30
10042;DHT22;5061;49.068;12.058;2023-05-27T20:08:17;17.80;70.10
10042;DHT22;5061;49.068;12.058;2023-05-27T20:11:38;17.80;71.00
10042;DHT22;5061;49.068;12.058;2023-05-27T20:14:58;17.70;70.70
10042;DHT22;5061;49.068;12.058;2023-05-27T20:18:19;17.60;70.50
10042;DHT22;5061;49.068;12.058;2023-05-27T20:21:39;17.60;70.50
10042;DHT22;5061;49.068;12.058;2023-05-27T20:25:00;17.50;70.70
10042;DHT22;5061;49.068;12.058;2023-05-27T20:28:21;17.50;71.50
10042;DHT22;5061;49.068;12.058;2023-05-27T20:31:42;17.40;69.70
10042;DHT22;5061;49.068;12.058;2023-05-27T20:35:02;17.30;71.60
10042;DHT22;5061;49.068;12.058;2023-05-27T20:38:25;17.30;72.50
10042;DHT22;5061;49.068;12.058;2023-05-27T20:41:46;17.20;71.20
10042;DHT22;5061;49.068;12.058;2023-05-27T20:45:07;17.20;70.10
10042;DHT22;5061;49.068;12.058;2023-05-27T20:48:28;17.10;70.40
10042;DHT22;5061;49.068;12.058;2023-05-27T20:51:48;17.10;69.20
10042;DHT22;5061;49.068;12.058;2023-05-27T20:55:09;17.00;72.50
10042;DHT22;5061;49.068;12.058;2023-05-27T20:58:29;16.90;72.20
10042;DHT22;5061;49.068;12.058;2023-05-27T21:01:50;16.80;71.30
10042;DHT22;5061;49.068;12.058;2023-05-27T21:05:10;16.80;72.20
10042;DHT22;5061;49.068;12.058;2023-05-27T21:08:34;16.70;92.70
10042;DHT22;5061;49.068;12.058;2023-05-27T21:11:55;16.70;74.60
10042;DHT22;5061;49.068;12.058;2023-05-27T21:15:15;16.60;74.50
10042;DHT22;5061;49.068;12.058;2023-05-27T21:18:36;16.60;74.30
10042;DHT22;5061;49.068;12.058;2023-05-27T21:21:56;16.50;72.40
10042;DHT22;5061;49.068;12.058;2023-05-27T21:25:19;16.40;72.80